Terminal Aerodrome Forecast
Issued by NWS Northern Indiana

Home | Current Version | Previous Version | Graphics & Text | Print | Product List | Glossary On
Versions: 1 2 3 4 5 6 7 8 9 10 11 12 13 14 15 16 17
158
FTUS43 KIWX 221406 AAA
TAFFWA
TAF AMD
KFWA 221406Z 2214/2312 21008KT P6SM -SHRA FEW025 SCT045 OVC100
      TEMPO 2215/2217 6SM -SHRA BKN020 OVC060
     FM221700 25010KT P6SM BKN040
     FM222300 28006KT P6SM BKN050=

USA.gov is the U.S. government's official web portal to all federal, state and local government web resources and services.